Time;durP1;ratioP1;P1;durP2;ratioP2;P2;SDS_P1;SDS_P2;PMS_P1;PMS_P2;Temp;Humidity;BMP_temperature;BMP_pressure;BME280_temperature;BME280_humidity;BME280_pressure;Samples;Min_cycle;Max_cycle;Signal;HPM_P1;HPM_P2
2023/02/07 00:01:22;;;;;;;11.45;4.10;;;;;;;;;;5030157;28;20033;-78
2023/02/07 00:03:48;;;;;;;11.80;4.72;;;;;;;;;;5027279;28;20157;-78
2023/02/07 00:06:28;;;;;;;9.85;3.78;;;;;;;;;;5028163;28;20473;-78
2023/02/07 00:08:54;;;;;;;13.55;4.50;;;;;;;;;;5031168;28;20025;-78
2023/02/07 00:11:21;;;;;;;8.68;4.13;;;;;;;;;;5014277;28;20044;-78
2023/02/07 00:13:50;;;;;;;9.15;4.30;;;;;;;;;;5017134;28;20021;-78
2023/02/07 00:16:16;;;;;;;8.50;4.53;;;;;;;;;;5033166;28;20436;-78
2023/02/07 00:18:42;;;;;;;12.23;4.50;;;;;;;;;;5027964;28;20033;-78
2023/02/07 00:21:11;;;;;;;9.02;4.32;;;;;;;;;;5012992;28;20087;-78
2023/02/07 00:23:37;;;;;;;8.57;3.80;;;;;;;;;;5014162;28;20477;-78
2023/02/07 00:26:04;;;;;;;9.20;4.20;;;;;;;;;;5011136;28;20044;-78
2023/02/07 00:28:30;;;;;;;7.65;4.10;;;;;;;;;;5014739;28;20025;-78
2023/02/07 00:31:07;;;;;;;10.35;4.47;;;;;;;;;;5028220;28;20025;-78
2023/02/07 00:33:38;;;;;;;8.45;4.22;;;;;;;;;;5029548;28;20032;-78
2023/02/07 00:36:06;;;;;;;9.85;4.70;;;;;;;;;;5009461;28;20021;-78
2023/02/07 00:38:32;;;;;;;7.95;3.80;;;;;;;;;;5031640;28;20437;-78
2023/02/07 00:41:00;;;;;;;7.10;3.85;;;;;;;;;;5030680;28;20048;-78
2023/02/07 00:43:26;;;;;;;8.10;4.18;;;;;;;;;;5017605;28;20034;-78
2023/02/07 00:45:52;;;;;;;6.78;3.05;;;;;;;;;;5027819;28;20385;-78
2023/02/07 00:48:17;;;;;;;7.25;4.07;;;;;;;;;;5030837;28;20022;-78
2023/02/07 00:50:42;;;;;;;7.78;3.90;;;;;;;;;;5012015;28;20033;-78
2023/02/07 00:53:08;;;;;;;7.90;3.97;;;;;;;;;;5022764;28;20082;-78
2023/02/07 00:55:33;;;;;;;11.43;4.47;;;;;;;;;;5022800;28;20022;-78
2023/02/07 00:57:58;;;;;;;8.70;4.07;;;;;;;;;;5032095;28;20025;-78
2023/02/07 01:00:24;;;;;;;10.57;4.13;;;;;;;;;;5014270;28;20488;-78
2023/02/07 01:02:49;;;;;;;9.07;3.92;;;;;;;;;;5012112;28;20028;-78
2023/02/07 01:05:15;;;;;;;8.50;3.97;;;;;;;;;;5013020;28;20096;-78
2023/02/07 01:07:40;;;;;;;7.68;3.70;;;;;;;;;;5013280;28;20037;-78
2023/02/07 01:10:06;;;;;;;8.15;3.78;;;;;;;;;;5017481;28;20041;-78
2023/02/07 01:12:31;;;;;;;8.23;3.95;;;;;;;;;;5030898;28;20043;-78
2023/02/07 01:14:57;;;;;;;8.45;4.40;;;;;;;;;;5029031;28;20080;-78
2023/02/07 01:17:23;;;;;;;10.25;4.38;;;;;;;;;;5006487;28;20112;-78
2023/02/07 01:19:49;;;;;;;8.25;4.05;;;;;;;;;;5026266;28;20121;-78
2023/02/07 01:22:14;;;;;;;9.48;4.32;;;;;;;;;;5014364;28;20018;-78
2023/02/07 01:24:39;;;;;;;8.65;4.55;;;;;;;;;;5027916;28;20040;-78
2023/02/07 01:27:05;;;;;;;6.18;3.78;;;;;;;;;;5029863;28;20025;-78
2023/02/07 01:29:30;;;;;;;9.45;4.20;;;;;;;;;;5025175;28;20033;-78
2023/02/07 01:31:55;;;;;;;10.00;4.15;;;;;;;;;;5010161;28;20057;-78
2023/02/07 01:34:21;;;;;;;9.35;4.40;;;;;;;;;;5011385;28;20083;-78
2023/02/07 01:36:46;;;;;;;8.95;4.15;;;;;;;;;;5024398;28;20029;-79
2023/02/07 01:39:12;;;;;;;8.75;4.18;;;;;;;;;;5027781;28;20026;-78
2023/02/07 01:41:37;;;;;;;10.27;4.03;;;;;;;;;;5028977;28;20048;-78
2023/02/07 01:44:27;;;;;;;9.60;4.38;;;;;;;;;;5031545;28;20025;-78
2023/02/07 01:46:54;;;;;;;10.48;4.43;;;;;;;;;;4980149;28;20033;-78
2023/02/07 01:49:24;;;;;;;9.02;4.57;;;;;;;;;;5008055;28;20025;-78
2023/02/07 01:52:10;;;;;;;8.88;4.68;;;;;;;;;;5027217;28;20152;-78
2023/02/07 01:54:36;;;;;;;7.55;4.40;;;;;;;;;;5009409;28;20033;-78
2023/02/07 01:57:05;;;;;;;9.07;4.55;;;;;;;;;;5027567;28;20029;-78
2023/02/07 01:59:34;;;;;;;9.93;4.85;;;;;;;;;;5009681;28;20030;-78
2023/02/07 02:02:03;;;;;;;9.60;4.43;;;;;;;;;;5025855;28;20022;-78
2023/02/07 02:04:28;;;;;;;8.93;4.13;;;;;;;;;;5029052;28;20112;-78
2023/02/07 02:06:55;;;;;;;10.00;4.80;;;;;;;;;;5009053;28;20088;-78
2023/02/07 02:09:20;;;;;;;8.80;4.57;;;;;;;;;;5003030;28;20033;-78
2023/02/07 02:12:03;;;;;;;9.98;4.63;;;;;;;;;;5028473;28;20024;-78
2023/02/07 02:14:44;;;;;;;11.77;4.97;;;;;;;;;;5024218;28;20023;-78
2023/02/07 02:17:15;;;;;;;10.45;5.05;;;;;;;;;;5012346;28;20442;-78
2023/02/07 02:20:01;;;;;;;12.00;5.03;;;;;;;;;;5008984;28;20026;-78
2023/02/07 02:22:46;;;;;;;10.00;4.68;;;;;;;;;;5006570;28;20531;-78
2023/02/07 02:25:49;;;;;;;9.93;4.55;;;;;;;;;;5022203;28;20116;-78
2023/02/07 02:28:20;;;;;;;9.30;4.53;;;;;;;;;;5024264;28;20036;-78
2023/02/07 02:31:13;;;;;;;8.27;4.50;;;;;;;;;;5019334;28;20034;-78
2023/02/07 02:33:41;;;;;;;8.70;4.60;;;;;;;;;;5010324;28;20052;-78
2023/02/07 02:36:20;;;;;;;9.57;5.22;;;;;;;;;;5007903;28;20041;-78
2023/02/07 02:39:06;;;;;;;9.35;4.72;;;;;;;;;;5027714;28;20021;-78
2023/02/07 02:41:41;;;;;;;10.60;4.72;;;;;;;;;;5010117;28;20036;-78
2023/02/07 02:44:12;;;;;;;11.45;4.90;;;;;;;;;;5011061;28;20303;-78
2023/02/07 02:46:40;;;;;;;10.20;4.88;;;;;;;;;;5028574;28;20025;-78
2023/02/07 02:49:10;;;;;;;9.73;5.03;;;;;;;;;;5007518;28;20617;-78
2023/02/07 02:51:35;;;;;;;8.10;4.68;;;;;;;;;;5023555;28;20511;-78
2023/02/07 02:54:01;;;;;;;11.38;5.05;;;;;;;;;;5027092;28;20116;-78
2023/02/07 02:56:38;;;;;;;9.85;4.78;;;;;;;;;;5013725;28;20022;-78
2023/02/07 02:59:28;;;;;;;10.40;4.82;;;;;;;;;;5031344;28;20025;-78
2023/02/07 03:02:09;;;;;;;9.43;4.70;;;;;;;;;;5029795;28;20032;-78
2023/02/07 03:04:37;;;;;;;9.95;5.18;;;;;;;;;;5021551;28;20120;-78
2023/02/07 03:07:17;;;;;;;9.80;5.25;;;;;;;;;;5032335;28;20461;-78
2023/02/07 03:09:51;;;;;;;12.27;4.55;;;;;;;;;;5033021;28;20025;-78
2023/02/07 03:12:24;;;;;;;11.50;5.28;;;;;;;;;;5015119;28;20025;-78
2023/02/07 03:14:55;;;;;;;10.63;5.60;;;;;;;;;;5034083;28;20037;-78
2023/02/07 03:17:27;;;;;;;12.40;5.40;;;;;;;;;;5031565;28;20459;-78
2023/02/07 03:20:18;;;;;;;12.93;5.95;;;;;;;;;;5022503;28;20056;-78
2023/02/07 03:22:45;;;;;;;12.60;6.03;;;;;;;;;;5007923;28;20140;-78
2023/02/07 03:25:13;;;;;;;13.25;5.88;;;;;;;;;;5025495;28;20084;-78
2023/02/07 03:27:39;;;;;;;13.43;6.53;;;;;;;;;;5015707;28;20044;-78
2023/02/07 03:30:09;;;;;;;14.55;6.50;;;;;;;;;;5014860;28;20033;-78
2023/02/07 03:32:42;;;;;;;13.65;6.32;;;;;;;;;;5026509;28;20036;-78
2023/02/07 03:35:16;;;;;;;13.40;6.72;;;;;;;;;;5013242;28;20037;-78
2023/02/07 03:37:46;;;;;;;14.82;6.50;;;;;;;;;;5011924;28;20037;-78
2023/02/07 03:40:13;;;;;;;16.52;6.72;;;;;;;;;;5022616;28;20472;-78
2023/02/07 03:42:58;;;;;;;15.05;6.65;;;;;;;;;;4996858;28;20037;-78
2023/02/07 03:45:24;;;;;;;16.85;6.20;;;;;;;;;;5031383;28;20036;-78
2023/02/07 03:47:50;;;;;;;15.07;6.40;;;;;;;;;;5012590;28;20042;-78
2023/02/07 03:50:16;;;;;;;14.65;6.93;;;;;;;;;;5013133;28;20033;-77
2023/02/07 03:52:42;;;;;;;16.02;7.00;;;;;;;;;;5033534;28;20029;-77
2023/02/07 03:55:07;;;;;;;13.55;6.60;;;;;;;;;;5010143;28;20048;-78
2023/02/07 03:57:33;;;;;;;15.40;6.85;;;;;;;;;;5017776;28;20025;-78
2023/02/07 03:59:58;;;;;;;13.90;7.10;;;;;;;;;;5026273;28;20385;-78
2023/02/07 04:02:24;;;;;;;17.50;7.78;;;;;;;;;;5032233;28;20487;-78
2023/02/07 04:04:49;;;;;;;12.88;6.55;;;;;;;;;;5014109;28;20026;-78
2023/02/07 04:07:15;;;;;;;17.23;7.05;;;;;;;;;;5009880;28;20029;-77
2023/02/07 04:09:40;;;;;;;13.65;6.95;;;;;;;;;;5010788;28;20029;-78
2023/02/07 04:12:05;;;;;;;14.13;6.55;;;;;;;;;;5016818;28;20057;-78
2023/02/07 04:14:31;;;;;;;17.08;7.28;;;;;;;;;;5021408;28;20174;-78
2023/02/07 04:16:56;;;;;;;14.48;6.78;;;;;;;;;;5023912;28;20106;-77
2023/02/07 04:19:22;;;;;;;20.48;7.38;;;;;;;;;;5024218;28;20041;-78
2023/02/07 04:21:47;;;;;;;14.35;7.20;;;;;;;;;;5014933;28;20032;-78
2023/02/07 04:24:13;;;;;;;13.88;6.93;;;;;;;;;;5033814;28;20029;-78
2023/02/07 04:26:38;;;;;;;15.60;6.68;;;;;;;;;;5016412;28;20053;-78
2023/02/07 04:29:04;;;;;;;16.27;7.03;;;;;;;;;;5040253;28;20059;-78
2023/02/07 04:31:29;;;;;;;15.35;6.88;;;;;;;;;;5031151;28;20026;-78
2023/02/07 04:33:55;;;;;;;15.70;7.63;;;;;;;;;;5009481;28;20034;-79
2023/02/07 04:36:21;;;;;;;17.48;7.70;;;;;;;;;;5010995;28;20508;-77
2023/02/07 04:38:47;;;;;;;19.13;7.80;;;;;;;;;;5033377;28;20039;-78
2023/02/07 04:41:12;;;;;;;15.63;7.78;;;;;;;;;;5026817;28;20100;-78
2023/02/07 04:43:37;;;;;;;14.68;6.80;;;;;;;;;;5028193;28;20021;-78
2023/02/07 04:46:04;;;;;;;16.60;7.45;;;;;;;;;;5008342;28;20379;-78
2023/02/07 04:48:31;;;;;;;17.02;7.93;;;;;;;;;;5013904;28;20472;-78
2023/02/07 04:50:56;;;;;;;16.58;7.93;;;;;;;;;;5013254;28;20084;-77
2023/02/07 04:53:22;;;;;;;14.98;7.57;;;;;;;;;;5015791;28;20029;-78
2023/02/07 04:55:48;;;;;;;15.05;7.00;;;;;;;;;;5011972;28;20053;-78
2023/02/07 04:58:14;;;;;;;13.75;7.43;;;;;;;;;;5025312;28;20481;-78
2023/02/07 05:00:40;;;;;;;17.48;7.95;;;;;;;;;;5029251;28;20021;-77
2023/02/07 05:03:05;;;;;;;14.65;7.45;;;;;;;;;;5015574;28;20381;-78
2023/02/07 05:05:30;;;;;;;16.65;8.18;;;;;;;;;;5010797;28;20109;-78
2023/02/07 05:07:56;;;;;;;17.77;7.80;;;;;;;;;;5009915;28;20025;-78
2023/02/07 05:10:21;;;;;;;17.27;9.10;;;;;;;;;;5036746;28;20036;-77
2023/02/07 05:12:46;;;;;;;19.10;8.73;;;;;;;;;;5034384;28;20469;-77
2023/02/07 05:15:12;;;;;;;20.55;8.70;;;;;;;;;;5012948;28;20034;-78
2023/02/07 05:17:37;;;;;;;17.42;8.43;;;;;;;;;;5012319;28;20116;-78
2023/02/07 05:20:04;;;;;;;15.90;8.57;;;;;;;;;;5010228;28;20034;-78
2023/02/07 05:22:30;;;;;;;18.52;8.48;;;;;;;;;;5028674;28;20386;-78
2023/02/07 05:24:55;;;;;;;17.88;9.68;;;;;;;;;;5022291;28;20033;-78
2023/02/07 05:27:21;;;;;;;21.77;9.07;;;;;;;;;;5008290;28;20021;-78
2023/02/07 05:29:46;;;;;;;20.48;8.88;;;;;;;;;;5009977;28;20040;-78
2023/02/07 05:34:56;;;;;;;15.70;7.90;;;;;;;;;;5025912;28;20437;-78
2023/02/07 05:37:22;;;;;;;19.52;8.77;;;;;;;;;;5007098;28;20033;-78
2023/02/07 05:39:47;;;;;;;19.75;8.65;;;;;;;;;;5007442;28;20021;-78
2023/02/07 05:42:12;;;;;;;15.48;8.05;;;;;;;;;;5025417;28;20467;-78
2023/02/07 05:44:38;;;;;;;15.45;8.15;;;;;;;;;;5032101;28;20091;-78
2023/02/07 05:47:03;;;;;;;18.65;8.63;;;;;;;;;;5012680;28;20108;-78
2023/02/07 05:49:28;;;;;;;19.27;8.75;;;;;;;;;;5027599;28;20025;-78
2023/02/07 05:51:54;;;;;;;18.40;8.43;;;;;;;;;;5009297;28;20049;-78
2023/02/07 05:54:19;;;;;;;21.65;8.82;;;;;;;;;;5024202;28;21042;-78
2023/02/07 05:56:45;;;;;;;16.48;8.52;;;;;;;;;;5023514;28;20047;-78
2023/02/07 05:59:10;;;;;;;16.60;7.82;;;;;;;;;;5027313;28;20084;-78
2023/02/07 06:01:36;;;;;;;17.40;8.38;;;;;;;;;;5023891;28;20061;-78
2023/02/07 06:04:01;;;;;;;18.23;8.65;;;;;;;;;;5003721;28;20512;-78
2023/02/07 06:06:26;;;;;;;19.75;8.73;;;;;;;;;;4995048;28;20487;-78
2023/02/07 06:08:52;;;;;;;23.15;8.90;;;;;;;;;;5021325;28;20065;-78
2023/02/07 06:11:17;;;;;;;22.52;10.40;;;;;;;;;;5027779;28;20024;-78
2023/02/07 06:13:43;;;;;;;23.98;9.85;;;;;;;;;;5026447;28;20107;-78
2023/02/07 06:16:09;;;;;;;20.00;9.05;;;;;;;;;;5026311;28;20473;-78
2023/02/07 06:18:35;;;;;;;20.23;9.32;;;;;;;;;;5008016;28;20033;-78
2023/02/07 06:21:00;;;;;;;25.05;9.43;;;;;;;;;;5025600;28;20096;-78
2023/02/07 06:23:26;;;;;;;23.35;10.43;;;;;;;;;;5004886;28;20076;-78
2023/02/07 06:25:51;;;;;;;22.80;8.98;;;;;;;;;;5020984;28;20544;-78
2023/02/07 06:28:17;;;;;;;26.17;11.13;;;;;;;;;;5017056;28;20061;-78
2023/02/07 06:30:42;;;;;;;24.88;10.38;;;;;;;;;;5009587;28;20060;-78
2023/02/07 06:33:07;;;;;;;20.90;10.25;;;;;;;;;;5007585;28;20064;-78
2023/02/07 06:35:33;;;;;;;26.08;10.20;;;;;;;;;;5009919;28;20026;-78
2023/02/07 06:37:58;;;;;;;21.88;10.77;;;;;;;;;;5012923;28;20024;-78
2023/02/07 06:40:23;;;;;;;26.08;11.40;;;;;;;;;;5028366;28;20112;-78
2023/02/07 06:42:49;;;;;;;20.15;9.70;;;;;;;;;;5019808;28;20037;-78
2023/02/07 06:45:14;;;;;;;23.25;10.50;;;;;;;;;;5024530;28;20029;-78
2023/02/07 06:47:40;;;;;;;23.35;9.95;;;;;;;;;;5015968;28;20029;-78
2023/02/07 06:50:05;;;;;;;20.70;10.10;;;;;;;;;;5021726;28;20473;-78
2023/02/07 06:52:31;;;;;;;20.23;9.63;;;;;;;;;;5006109;28;20029;-78
2023/02/07 06:54:56;;;;;;;21.80;9.90;;;;;;;;;;5009018;28;20390;-78
2023/02/07 06:57:21;;;;;;;20.40;9.90;;;;;;;;;;5032423;28;20026;-77
2023/02/07 06:59:47;;;;;;;23.80;11.48;;;;;;;;;;5005518;28;20117;-78
2023/02/07 07:02:12;;;;;;;23.17;9.60;;;;;;;;;;5011593;28;20071;-78
2023/02/07 07:04:38;;;;;;;20.63;9.55;;;;;;;;;;5026001;28;20140;-78
2023/02/07 07:07:03;;;;;;;23.13;10.68;;;;;;;;;;5011186;28;20080;-78
2023/02/07 07:09:29;;;;;;;24.42;11.18;;;;;;;;;;5030276;28;20071;-78
2023/02/07 07:11:54;;;;;;;20.40;9.70;;;;;;;;;;5031589;28;20475;-78
2023/02/07 07:14:20;;;;;;;16.60;8.77;;;;;;;;;;5029078;28;20079;-78
2023/02/07 07:16:45;;;;;;;19.65;9.35;;;;;;;;;;5029155;28;20065;-78
2023/02/07 07:19:11;;;;;;;17.88;8.85;;;;;;;;;;5027043;28;20043;-78
2023/02/07 07:21:36;;;;;;;21.20;10.00;;;;;;;;;;5016573;28;20026;-78
2023/02/07 07:24:02;;;;;;;18.17;9.40;;;;;;;;;;5020406;28;20536;-78
2023/02/07 07:26:27;;;;;;;18.25;9.10;;;;;;;;;;5007475;28;20071;-78
2023/02/07 07:28:57;;;;;;;16.77;8.60;;;;;;;;;;5022648;28;20029;-78
2023/02/07 07:31:22;;;;;;;15.65;8.65;;;;;;;;;;5025849;28;20025;-78
2023/02/07 07:33:48;;;;;;;18.27;8.88;;;;;;;;;;5023202;28;20048;-78
2023/02/07 07:36:13;;;;;;;20.63;9.25;;;;;;;;;;5011535;28;20017;-78
2023/02/07 07:38:39;;;;;;;19.77;9.20;;;;;;;;;;5013238;28;20029;-78
2023/02/07 07:41:04;;;;;;;18.67;8.45;;;;;;;;;;5027214;28;20042;-78
2023/02/07 07:43:29;;;;;;;18.27;9.07;;;;;;;;;;5011507;28;20053;-78
2023/02/07 07:45:58;;;;;;;18.63;9.27;;;;;;;;;;5004996;28;20492;-78
2023/02/07 07:48:24;;;;;;;20.08;8.98;;;;;;;;;;5026439;28;20583;-78
2023/02/07 07:50:49;;;;;;;19.77;9.15;;;;;;;;;;5012962;28;20116;-78
2023/02/07 07:53:17;;;;;;;19.98;9.65;;;;;;;;;;5024664;28;20025;-78
2023/02/07 07:55:48;;;;;;;20.75;9.93;;;;;;;;;;5026124;28;20033;-78
2023/02/07 07:58:13;;;;;;;17.27;9.43;;;;;;;;;;5029489;28;20030;-77
2023/02/07 08:00:38;;;;;;;20.85;9.40;;;;;;;;;;5016909;28;20124;-78
2023/02/07 08:03:04;;;;;;;16.73;8.07;;;;;;;;;;5036141;28;20021;-77
2023/02/07 08:05:29;;;;;;;18.63;9.95;;;;;;;;;;5030688;28;20457;-78
2023/02/07 08:07:54;;;;;;;19.23;9.35;;;;;;;;;;5032498;28;20410;-78
2023/02/07 08:10:20;;;;;;;20.55;9.65;;;;;;;;;;5015494;28;20366;-77
2023/02/07 08:12:45;;;;;;;20.30;9.65;;;;;;;;;;5022248;28;20052;-78
2023/02/07 08:15:12;;;;;;;18.15;9.10;;;;;;;;;;5025749;28;20037;-79
2023/02/07 08:17:38;;;;;;;19.80;9.43;;;;;;;;;;5013769;28;20026;-78
2023/02/07 08:20:04;;;;;;;19.77;9.65;;;;;;;;;;5032648;28;20024;-78
2023/02/07 08:22:30;;;;;;;22.02;9.88;;;;;;;;;;5029335;28;20416;-77
2023/02/07 08:24:55;;;;;;;20.88;10.40;;;;;;;;;;5026508;28;20150;-78
2023/02/07 08:27:20;;;;;;;21.48;9.50;;;;;;;;;;5023284;28;20029;-78
2023/02/07 08:29:46;;;;;;;19.48;10.32;;;;;;;;;;5014404;28;20037;-77
2023/02/07 08:32:11;;;;;;;20.73;10.15;;;;;;;;;;5030487;28;20033;-78
2023/02/07 08:34:37;;;;;;;20.48;10.35;;;;;;;;;;5020634;28;20029;-78
2023/02/07 08:37:07;;;;;;;20.88;10.20;;;;;;;;;;5028089;28;20037;-78
2023/02/07 08:39:35;;;;;;;21.13;10.82;;;;;;;;;;5025823;28;20034;-78
2023/02/07 08:42:01;;;;;;;23.70;10.65;;;;;;;;;;5023892;28;20017;-79
2023/02/07 08:44:27;;;;;;;20.23;10.43;;;;;;;;;;5029286;28;20362;-78
2023/02/07 08:46:52;;;;;;;26.00;10.27;;;;;;;;;;5011121;28;20068;-78
2023/02/07 08:49:17;;;;;;;21.20;9.90;;;;;;;;;;5016768;28;20030;-78
2023/02/07 08:51:43;;;;;;;22.15;10.13;;;;;;;;;;5000834;28;20033;-77
2023/02/07 08:54:08;;;;;;;21.17;9.98;;;;;;;;;;5030130;28;20037;-78
2023/02/07 08:56:34;;;;;;;20.10;10.02;;;;;;;;;;5032091;28;20043;-77
2023/02/07 08:58:59;;;;;;;21.73;9.88;;;;;;;;;;5015738;28;20037;-77
2023/02/07 09:01:25;;;;;;;18.95;9.77;;;;;;;;;;5014395;28;20020;-77
2023/02/07 09:03:54;;;;;;;15.98;8.40;;;;;;;;;;5012655;28;20487;-77
2023/02/07 09:06:23;;;;;;;17.70;8.93;;;;;;;;;;5032030;28;20053;-77
2023/02/07 09:08:49;;;;;;;17.73;8.63;;;;;;;;;;5033322;28;20021;-77
2023/02/07 09:11:15;;;;;;;18.52;9.15;;;;;;;;;;5036214;28;20074;-76
2023/02/07 09:13:44;;;;;;;17.65;9.25;;;;;;;;;;5013847;28;20385;-77
2023/02/07 09:16:10;;;;;;;18.52;8.38;;;;;;;;;;5006196;28;20022;-77
2023/02/07 09:18:36;;;;;;;18.25;9.43;;;;;;;;;;5013843;28;20497;-77
2023/02/07 09:21:02;;;;;;;17.05;8.63;;;;;;;;;;5021620;28;20018;-77
2023/02/07 09:23:27;;;;;;;19.33;9.73;;;;;;;;;;5010581;28;20468;-77
2023/02/07 09:25:53;;;;;;;18.52;8.73;;;;;;;;;;5013723;28;20033;-77
2023/02/07 09:28:21;;;;;;;16.05;8.18;;;;;;;;;;5015180;28;20071;-77
2023/02/07 09:30:47;;;;;;;18.55;8.90;;;;;;;;;;5010515;28;20120;-77
2023/02/07 09:33:14;;;;;;;15.45;8.13;;;;;;;;;;5025985;28;20065;-77
2023/02/07 09:35:47;;;;;;;15.98;9.25;;;;;;;;;;5014734;28;20033;-77
2023/02/07 09:38:20;;;;;;;16.27;7.93;;;;;;;;;;5029809;28;20029;-77
2023/02/07 09:40:47;;;;;;;;;;;;;;;;;;5019011;28;20104;-77
2023/02/07 09:43:37;;;;;;;15.82;8.32;;;;;;;;;;5030698;28;20426;-77
2023/02/07 09:46:06;;;;;;;15.98;8.27;;;;;;;;;;5017464;28;20123;-77
2023/02/07 09:48:45;;;;;;;15.23;7.63;;;;;;;;;;5009743;28;20562;-77
2023/02/07 09:51:14;;;;;;;16.25;7.63;;;;;;;;;;4998096;28;20378;-77
2023/02/07 09:53:48;;;;;;;14.15;7.22;;;;;;;;;;5011850;28;20029;-77
2023/02/07 09:56:18;;;;;;;13.30;7.30;;;;;;;;;;5012853;28;20436;-77
2023/02/07 09:59:25;;;;;;;14.35;7.63;;;;;;;;;;5012436;28;20053;-77
2023/02/07 10:01:58;;;;;;;14.13;7.05;;;;;;;;;;5018602;28;20139;-77
2023/02/07 10:04:40;;;;;;;15.27;7.25;;;;;;;;;;5026870;28;20029;-77
2023/02/07 10:07:06;;;;;;;16.23;7.35;;;;;;;;;;5014512;28;20025;-77
2023/02/07 10:09:40;;;;;;;14.80;6.88;;;;;;;;;;5031209;28;20469;-77
2023/02/07 10:12:08;;;;;;;12.23;6.80;;;;;;;;;;5023346;28;21515;-78
2023/02/07 10:15:17;;;;;;;13.52;7.47;;;;;;;;;;5026584;28;20033;-77
2023/02/07 10:18:00;;;;;;;13.35;6.78;;;;;;;;;;5026069;28;20035;-76
2023/02/07 10:20:38;;;;;;;12.30;7.13;;;;;;;;;;5030739;28;20048;-76
2023/02/07 10:23:12;;;;;;;12.50;6.35;;;;;;;;;;5014296;28;20386;-77
2023/02/07 10:26:15;;;;;;;11.38;6.10;;;;;;;;;;5028856;28;20026;-77
2023/02/07 10:29:07;;;;;;;11.88;6.22;;;;;;;;;;5011653;28;20499;-76
2023/02/07 10:31:45;;;;;;;12.40;6.57;;;;;;;;;;5018205;28;20033;-77
2023/02/07 10:34:19;;;;;;;11.10;5.75;;;;;;;;;;5030515;28;20021;-77
2023/02/07 10:36:48;;;;;;;11.02;5.30;;;;;;;;;;5031321;28;20033;-77
2023/02/07 10:39:32;;;;;;;10.70;5.72;;;;;;;;;;5010753;28;20429;-76
2023/02/07 10:41:58;;;;;;;10.30;5.28;;;;;;;;;;5027024;28;20026;-77
2023/02/07 10:44:24;;;;;;;11.30;5.50;;;;;;;;;;5014055;28;20028;-77
2023/02/07 10:46:59;;;;;;;10.77;5.70;;;;;;;;;;5011994;28;20021;-76
2023/02/07 10:49:28;;;;;;;10.68;4.95;;;;;;;;;;5023777;28;20105;-77
2023/02/07 10:52:18;;;;;;;9.98;5.35;;;;;;;;;;5008913;28;20032;-76
2023/02/07 10:55:11;;;;;;;10.57;5.05;;;;;;;;;;5028421;28;20044;-76
2023/02/07 10:57:37;;;;;;;9.10;4.60;;;;;;;;;;5004310;28;20041;-76
2023/02/07 11:00:10;;;;;;;8.00;4.75;;;;;;;;;;5024584;28;20092;-76
2023/02/07 11:02:48;;;;;;;8.35;4.68;;;;;;;;;;5006904;28;20022;-76
2023/02/07 11:05:14;;;;;;;7.70;4.22;;;;;;;;;;5004432;28;20492;-76
2023/02/07 11:07:39;;;;;;;9.07;4.35;;;;;;;;;;5013170;28;20120;-76
2023/02/07 11:10:22;;;;;;;8.18;4.78;;;;;;;;;;5031432;28;20126;-76
2023/02/07 11:12:58;;;;;;;8.00;3.97;;;;;;;;;;5029377;28;20085;-76
2023/02/07 11:15:38;;;;;;;9.05;4.57;;;;;;;;;;5011608;28;20033;-77
2023/02/07 11:18:05;;;;;;;7.45;4.03;;;;;;;;;;5012687;28;20032;-76
2023/02/07 11:20:40;;;;;;;10.93;4.38;;;;;;;;;;5015822;28;20040;-76
2023/02/07 11:23:13;;;;;;;8.23;4.18;;;;;;;;;;5026308;28;20044;-76
2023/02/07 11:25:42;;;;;;;7.45;4.32;;;;;;;;;;5016649;28;20087;-77
2023/02/07 11:28:19;;;;;;;7.75;3.95;;;;;;;;;;5013631;28;20068;-76
2023/02/07 11:30:45;;;;;;;8.27;4.10;;;;;;;;;;5016257;28;20083;-76
2023/02/07 11:33:18;;;;;;;8.25;4.28;;;;;;;;;;4999039;28;20037;-77
2023/02/07 11:36:03;;;;;;;;;;;;;;;;;;5018773;28;20095;-76
2023/02/07 11:38:29;;;;;;;6.90;3.60;;;;;;;;;;5014383;28;20312;-77
2023/02/07 11:41:00;;;;;;;7.85;4.10;;;;;;;;;;5015943;28;20420;-76
2023/02/07 11:43:26;;;;;;;9.40;4.20;;;;;;;;;;5016823;28;20029;-77
2023/02/07 11:45:58;;;;;;;7.40;3.83;;;;;;;;;;5016119;28;20465;-78
2023/02/07 11:48:33;;;;;;;7.40;4.93;;;;;;;;;;5016475;28;20485;-76
2023/02/07 11:51:05;;;;;;;7.43;3.97;;;;;;;;;;5028279;28;20025;-77
2023/02/07 11:53:36;;;;;;;7.32;3.97;;;;;;;;;;5015556;28;20021;-77
2023/02/07 11:56:03;;;;;;;10.68;4.75;;;;;;;;;;5029426;28;20473;-76
2023/02/07 11:58:35;;;;;;;8.75;4.10;;;;;;;;;;5028184;28;20635;-76
2023/02/07 12:01:07;;;;;;;10.27;4.53;;;;;;;;;;5032850;28;20028;-77
2023/02/07 12:03:33;;;;;;;9.00;4.80;;;;;;;;;;5031211;28;20033;-77
2023/02/07 12:06:04;;;;;;;9.57;4.85;;;;;;;;;;5014812;28;20436;-77
2023/02/07 12:08:34;;;;;;;8.43;4.97;;;;;;;;;;5033576;28;20035;-77
2023/02/07 12:11:11;;;;;;;8.85;4.90;;;;;;;;;;5034815;28;20386;-77
2023/02/07 12:13:47;;;;;;;9.68;4.68;;;;;;;;;;5026482;28;20040;-77
2023/02/07 12:16:27;;;;;;;11.02;4.70;;;;;;;;;;5034169;28;20567;-77
2023/02/07 12:19:00;;;;;;;9.75;5.00;;;;;;;;;;4999709;28;20472;-77
2023/02/07 12:21:54;;;;;;;9.75;5.35;;;;;;;;;;5009938;28;20466;-77
2023/02/07 12:24:28;;;;;;;8.40;4.50;;;;;;;;;;4987261;28;20088;-77
2023/02/07 12:27:30;;;;;;;9.90;4.90;;;;;;;;;;5027831;28;20124;-77
2023/02/07 12:29:59;;;;;;;8.45;4.55;;;;;;;;;;5001495;28;20261;-77
2023/02/07 12:32:42;;;;;;;9.50;4.85;;;;;;;;;;5015576;28;20503;-76
2023/02/07 12:35:35;;;;;;;8.10;4.60;;;;;;;;;;5032776;28;20022;-77
2023/02/07 12:38:26;;;;;;;9.55;5.05;;;;;;;;;;5032260;28;20028;-77
2023/02/07 12:41:20;;;;;;;8.30;4.68;;;;;;;;;;5040416;28;20503;-77
2023/02/07 12:44:14;;;;;;;8.23;4.55;;;;;;;;;;5030716;28;20100;-77
2023/02/07 12:46:56;;;;;;;10.38;4.53;;;;;;;;;;5011573;28;20531;-77
2023/02/07 12:49:52;;;;;;;10.50;4.75;;;;;;;;;;5026842;28;20025;-77
2023/02/07 12:52:38;;;;;;;9.02;4.93;;;;;;;;;;5007545;28;20472;-77
2023/02/07 12:55:19;;;;;;;8.18;4.75;;;;;;;;;;5023607;28;20017;-76
2023/02/07 12:58:40;;;;;;;8.07;4.43;;;;;;;;;;5015330;28;20038;-77
2023/02/07 13:01:28;;;;;;;8.43;4.60;;;;;;;;;;5020767;28;20056;-77
2023/02/07 13:04:17;;;;;;;8.77;4.32;;;;;;;;;;5029951;28;20096;-77
2023/02/07 13:07:04;;;;;;;12.07;4.55;;;;;;;;;;5016670;28;20032;-76
2023/02/07 13:09:36;;;;;;;8.32;4.20;;;;;;;;;;5035934;28;20035;-77
2023/02/07 13:12:37;;;;;;;9.75;4.70;;;;;;;;;;5011243;28;20038;-78
2023/02/07 13:15:13;;;;;;;7.50;3.92;;;;;;;;;;4998819;28;20059;-77
2023/02/07 13:17:44;;;;;;;6.70;3.80;;;;;;;;;;5030710;28;20071;-77
2023/02/07 13:20:26;;;;;;;9.18;4.45;;;;;;;;;;5030309;28;20014;-77
2023/02/07 13:23:10;;;;;;;7.82;3.97;;;;;;;;;;5016084;28;20056;-77
2023/02/07 13:25:39;;;;;;;9.75;4.57;;;;;;;;;;5016114;28;20017;-77
2023/02/07 13:28:17;;;;;;;8.10;4.22;;;;;;;;;;5024904;28;20022;-77
2023/02/07 13:30:45;;;;;;;9.02;4.20;;;;;;;;;;5012993;28;20452;-76
2023/02/07 13:33:35;;;;;;;8.18;3.97;;;;;;;;;;5012684;28;20022;-77
2023/02/07 13:36:28;;;;;;;7.60;3.80;;;;;;;;;;5039854;28;20436;-77
2023/02/07 13:39:00;;;;;;;6.63;3.88;;;;;;;;;;5007651;28;20021;-77
2023/02/07 13:41:45;;;;;;;8.60;4.83;;;;;;;;;;5009888;28;20388;-77
2023/02/07 13:44:20;;;;;;;7.13;3.92;;;;;;;;;;5014186;28;20390;-76
2023/02/07 13:47:18;;;;;;;7.22;4.07;;;;;;;;;;5027282;28;20033;-76
2023/02/07 13:49:54;;;;;;;6.75;4.10;;;;;;;;;;5009209;28;20393;-76
2023/02/07 13:52:25;;;;;;;8.07;4.57;;;;;;;;;;5019411;28;20061;-76
2023/02/07 13:54:57;;;;;;;7.53;4.55;;;;;;;;;;5031678;28;20489;-76
2023/02/07 14:00:35;;;;;;;7.30;4.07;;;;;;;;;;5027255;28;20043;-76
2023/02/07 14:03:03;;;;;;;7.78;4.15;;;;;;;;;;5027528;28;20026;-76
2023/02/07 14:05:37;;;;;;;7.32;3.92;;;;;;;;;;5031135;28;20049;-76
2023/02/07 14:08:17;;;;;;;6.80;3.65;;;;;;;;;;5030608;28;20031;-76
2023/02/07 14:10:53;;;;;;;7.18;4.20;;;;;;;;;;5034892;28;20507;-76
2023/02/07 14:13:24;;;;;;;6.70;3.75;;;;;;;;;;5013573;28;20104;-76
2023/02/07 14:16:03;;;;;;;6.63;3.92;;;;;;;;;;5033478;28;20068;-76
2023/02/07 14:18:43;;;;;;;8.52;4.57;;;;;;;;;;5013233;28;20040;-76
2023/02/07 14:21:17;;;;;;;7.85;4.07;;;;;;;;;;5027977;28;20024;-76
2023/02/07 14:24:03;;;;;;;8.45;4.22;;;;;;;;;;5023750;28;20044;-76
2023/02/07 14:26:35;;;;;;;7.13;3.60;;;;;;;;;;5033684;28;20100;-76
2023/02/07 14:29:19;;;;;;;7.95;3.90;;;;;;;;;;5013348;28;20026;-76
2023/02/07 14:32:12;;;;;;;7.93;4.03;;;;;;;;;;5025900;28;20029;-78
2023/02/07 14:35:23;;;;;;;7.80;3.92;;;;;;;;;;5007611;28;20121;-77
2023/02/07 14:37:54;;;;;;;8.77;4.50;;;;;;;;;;5005247;28;20033;-76
2023/02/07 14:40:34;;;;;;;8.50;4.65;;;;;;;;;;5007792;28;20030;-76
2023/02/07 14:43:01;;;;;;;8.18;4.95;;;;;;;;;;5021745;28;20112;-77
2023/02/07 14:45:30;;;;;;;8.85;5.10;;;;;;;;;;5008691;28;20022;-76
2023/02/07 14:47:56;;;;;;;9.35;5.50;;;;;;;;;;5020659;28;20029;-76
2023/02/07 14:50:29;;;;;;;10.23;5.50;;;;;;;;;;5037715;28;20381;-77
2023/02/07 14:52:56;;;;;;;10.10;5.63;;;;;;;;;;5033084;28;20034;-76
2023/02/07 14:55:41;;;;;;;9.57;5.43;;;;;;;;;;5016023;28;20033;-76
2023/02/07 14:58:23;;;;;;;10.02;4.97;;;;;;;;;;5027357;28;20078;-77
2023/02/07 15:00:55;;;;;;;8.60;5.13;;;;;;;;;;5031332;28;20469;-77
2023/02/07 15:03:20;;;;;;;9.80;5.28;;;;;;;;;;5030365;28;20029;-77
2023/02/07 15:05:53;;;;;;;9.43;5.30;;;;;;;;;;5028025;28;20029;-77